Paauhau, Hawaii
Current Conditions -  °F | °C
As of 12:56 PM on Saturday 25 Oct 2014 (Local Time) from PHSF Reporting Station
Clear Clear  
Wind Chill: 69°   Ceiling: Unl
Heat Index: 69°   Visibility: 10mi
Dew Point: 56°   Wind: 8mph
Humidity: 64%   Direction: 160°SSE
Pressure: 30.3"   Gusts: 22mph
Location:  20.08°N, 155.44°W
Report Text: PHSF 252256Z AUTO 16007G19KT 10SM CLR 20/14 A3030 RMK AO2 SLP143 T02040135 $
Loading
Personal Weather Stations






























Interactive Weather Map
Tropical Storm Tracking
New forecast layout! Learn more

10-Day Weather Forecast

Advertisements
Track Severe Weather on mobile